sensor_id;sensor_type;location;lat;lon;timestamp;P1;durP1;ratioP1;P2;durP2;ratioP2
5363;SDS011;2705;41.410;2.160;2022-10-31T00:01:58;39.00;;;15.27;;
5363;SDS011;2705;41.410;2.160;2022-10-31T00:04:28;29.10;;;14.73;;
5363;SDS011;2705;41.410;2.160;2022-10-31T00:06:57;32.80;;;15.80;;
5363;SDS011;2705;41.410;2.160;2022-10-31T00:09:26;33.53;;;14.17;;
5363;SDS011;2705;41.410;2.160;2022-10-31T00:11:57;33.63;;;15.07;;
5363;SDS011;2705;41.410;2.160;2022-10-31T00:14:26;27.10;;;13.67;;
5363;SDS011;2705;41.410;2.160;2022-10-31T00:16:55;29.67;;;14.97;;
5363;SDS011;2705;41.410;2.160;2022-10-31T00:19:25;28.13;;;14.10;;
5363;SDS011;2705;41.410;2.160;2022-10-31T00:21:54;33.70;;;15.00;;
5363;SDS011;2705;41.410;2.160;2022-10-31T00:24:23;38.60;;;15.97;;
5363;SDS011;2705;41.410;2.160;2022-10-31T00:26:53;32.10;;;15.30;;
5363;SDS011;2705;41.410;2.160;2022-10-31T00:29:23;35.03;;;15.70;;
5363;SDS011;2705;41.410;2.160;2022-10-31T00:31:52;36.53;;;14.20;;
5363;SDS011;2705;41.410;2.160;2022-10-31T00:34:21;34.63;;;14.67;;
5363;SDS011;2705;41.410;2.160;2022-10-31T00:36:51;36.27;;;15.30;;
5363;SDS011;2705;41.410;2.160;2022-10-31T00:39:20;33.57;;;14.80;;
5363;SDS011;2705;41.410;2.160;2022-10-31T00:41:49;35.97;;;15.50;;
5363;SDS011;2705;41.410;2.160;2022-10-31T00:44:18;29.17;;;14.47;;
5363;SDS011;2705;41.410;2.160;2022-10-31T00:46:49;26.83;;;14.17;;
5363;SDS011;2705;41.410;2.160;2022-10-31T00:49:21;32.83;;;15.10;;
5363;SDS011;2705;41.410;2.160;2022-10-31T00:51:50;30.13;;;14.90;;
5363;SDS011;2705;41.410;2.160;2022-10-31T00:54:19;36.83;;;15.37;;
5363;SDS011;2705;41.410;2.160;2022-10-31T00:56:49;33.90;;;14.60;;
5363;SDS011;2705;41.410;2.160;2022-10-31T00:59:18;38.53;;;15.43;;
5363;SDS011;2705;41.410;2.160;2022-10-31T01:01:48;38.00;;;16.03;;
5363;SDS011;2705;41.410;2.160;2022-10-31T01:04:18;42.43;;;15.93;;
5363;SDS011;2705;41.410;2.160;2022-10-31T01:06:48;36.87;;;15.73;;
5363;SDS011;2705;41.410;2.160;2022-10-31T01:09:17;36.20;;;16.40;;
5363;SDS011;2705;41.410;2.160;2022-10-31T01:11:47;37.43;;;16.67;;
5363;SDS011;2705;41.410;2.160;2022-10-31T01:14:16;41.90;;;17.63;;
5363;SDS011;2705;41.410;2.160;2022-10-31T01:16:45;36.30;;;17.60;;
5363;SDS011;2705;41.410;2.160;2022-10-31T01:19:16;45.23;;;16.23;;
5363;SDS011;2705;41.410;2.160;2022-10-31T01:21:46;35.07;;;17.10;;
5363;SDS011;2705;41.410;2.160;2022-10-31T01:24:15;32.80;;;16.13;;
5363;SDS011;2705;41.410;2.160;2022-10-31T01:26:45;36.30;;;15.63;;
5363;SDS011;2705;41.410;2.160;2022-10-31T01:29:14;30.10;;;14.90;;
5363;SDS011;2705;41.410;2.160;2022-10-31T01:31:43;32.80;;;16.17;;
5363;SDS011;2705;41.410;2.160;2022-10-31T01:34:13;41.70;;;15.80;;
5363;SDS011;2705;41.410;2.160;2022-10-31T01:36:45;32.23;;;14.30;;
5363;SDS011;2705;41.410;2.160;2022-10-31T01:39:18;29.33;;;15.17;;
5363;SDS011;2705;41.410;2.160;2022-10-31T01:41:48;39.40;;;16.40;;
5363;SDS011;2705;41.410;2.160;2022-10-31T01:47:05;36.20;;;15.77;;
5363;SDS011;2705;41.410;2.160;2022-10-31T01:49:37;36.20;;;15.43;;
5363;SDS011;2705;41.410;2.160;2022-10-31T01:52:09;30.40;;;14.70;;
5363;SDS011;2705;41.410;2.160;2022-10-31T01:54:43;39.60;;;15.23;;
5363;SDS011;2705;41.410;2.160;2022-10-31T01:57:14;34.07;;;15.20;;
5363;SDS011;2705;41.410;2.160;2022-10-31T01:59:44;30.90;;;15.70;;
5363;SDS011;2705;41.410;2.160;2022-10-31T02:02:16;30.67;;;14.80;;
5363;SDS011;2705;41.410;2.160;2022-10-31T02:04:46;32.50;;;15.30;;
5363;SDS011;2705;41.410;2.160;2022-10-31T02:07:19;38.83;;;17.30;;
5363;SDS011;2705;41.410;2.160;2022-10-31T02:09:50;35.80;;;16.73;;
5363;SDS011;2705;41.410;2.160;2022-10-31T02:12:20;35.93;;;16.60;;
5363;SDS011;2705;41.410;2.160;2022-10-31T02:14:56;26.67;;;14.30;;
5363;SDS011;2705;41.410;2.160;2022-10-31T02:17:25;28.30;;;16.90;;
5363;SDS011;2705;41.410;2.160;2022-10-31T02:19:57;28.97;;;14.43;;
5363;SDS011;2705;41.410;2.160;2022-10-31T02:22:33;32.93;;;15.67;;
5363;SDS011;2705;41.410;2.160;2022-10-31T02:25:13;31.90;;;14.70;;
5363;SDS011;2705;41.410;2.160;2022-10-31T02:27:52;29.03;;;14.57;;
5363;SDS011;2705;41.410;2.160;2022-10-31T02:30:27;30.13;;;14.97;;
5363;SDS011;2705;41.410;2.160;2022-10-31T02:33:04;32.50;;;14.33;;
5363;SDS011;2705;41.410;2.160;2022-10-31T02:35:39;27.60;;;13.50;;
5363;SDS011;2705;41.410;2.160;2022-10-31T02:38:13;29.77;;;12.80;;
5363;SDS011;2705;41.410;2.160;2022-10-31T02:40:47;27.97;;;13.77;;
5363;SDS011;2705;41.410;2.160;2022-10-31T02:43:27;25.07;;;13.87;;
5363;SDS011;2705;41.410;2.160;2022-10-31T02:45:58;27.10;;;13.70;;
5363;SDS011;2705;41.410;2.160;2022-10-31T02:48:33;34.57;;;14.57;;
5363;SDS011;2705;41.410;2.160;2022-10-31T02:51:03;27.23;;;12.83;;
5363;SDS011;2705;41.410;2.160;2022-10-31T02:53:35;34.90;;;14.20;;
5363;SDS011;2705;41.410;2.160;2022-10-31T02:56:08;37.60;;;15.37;;
5363;SDS011;2705;41.410;2.160;2022-10-31T02:58:42;30.50;;;15.07;;
5363;SDS011;2705;41.410;2.160;2022-10-31T03:01:17;34.87;;;15.33;;
5363;SDS011;2705;41.410;2.160;2022-10-31T03:03:54;25.87;;;13.87;;
5363;SDS011;2705;41.410;2.160;2022-10-31T03:06:28;32.47;;;14.43;;
5363;SDS011;2705;41.410;2.160;2022-10-31T03:09:02;30.07;;;13.40;;
5363;SDS011;2705;41.410;2.160;2022-10-31T03:11:32;33.37;;;14.63;;
5363;SDS011;2705;41.410;2.160;2022-10-31T03:14:05;34.60;;;14.10;;
5363;SDS011;2705;41.410;2.160;2022-10-31T03:16:39;32.57;;;13.40;;
5363;SDS011;2705;41.410;2.160;2022-10-31T03:19:14;31.07;;;12.80;;
5363;SDS011;2705;41.410;2.160;2022-10-31T03:21:45;30.30;;;12.13;;
5363;SDS011;2705;41.410;2.160;2022-10-31T03:24:15;26.50;;;13.50;;
5363;SDS011;2705;41.410;2.160;2022-10-31T03:26:45;24.03;;;11.63;;
5363;SDS011;2705;41.410;2.160;2022-10-31T03:29:16;26.87;;;12.10;;
5363;SDS011;2705;41.410;2.160;2022-10-31T03:31:49;25.93;;;13.17;;
5363;SDS011;2705;41.410;2.160;2022-10-31T03:34:23;30.23;;;13.60;;
5363;SDS011;2705;41.410;2.160;2022-10-31T03:36:53;29.47;;;14.20;;
5363;SDS011;2705;41.410;2.160;2022-10-31T03:39:23;23.97;;;14.40;;
5363;SDS011;2705;41.410;2.160;2022-10-31T03:41:53;27.40;;;13.00;;
5363;SDS011;2705;41.410;2.160;2022-10-31T03:44:24;26.90;;;12.50;;
5363;SDS011;2705;41.410;2.160;2022-10-31T03:46:59;26.20;;;12.80;;
5363;SDS011;2705;41.410;2.160;2022-10-31T03:49:30;22.63;;;13.40;;
5363;SDS011;2705;41.410;2.160;2022-10-31T03:52:01;28.10;;;13.67;;
5363;SDS011;2705;41.410;2.160;2022-10-31T03:54:33;24.80;;;13.00;;
5363;SDS011;2705;41.410;2.160;2022-10-31T03:57:05;29.17;;;13.77;;
5363;SDS011;2705;41.410;2.160;2022-10-31T03:59:36;24.47;;;12.90;;
5363;SDS011;2705;41.410;2.160;2022-10-31T04:02:10;25.40;;;13.07;;
5363;SDS011;2705;41.410;2.160;2022-10-31T04:04:42;25.47;;;12.50;;
5363;SDS011;2705;41.410;2.160;2022-10-31T04:07:12;29.93;;;11.70;;
5363;SDS011;2705;41.410;2.160;2022-10-31T04:09:43;23.77;;;12.80;;
5363;SDS011;2705;41.410;2.160;2022-10-31T04:12:13;35.80;;;12.23;;
5363;SDS011;2705;41.410;2.160;2022-10-31T04:15:00;28.77;;;11.97;;
5363;SDS011;2705;41.410;2.160;2022-10-31T04:17:33;25.53;;;12.50;;
5363;SDS011;2705;41.410;2.160;2022-10-31T04:20:06;27.33;;;13.07;;
5363;SDS011;2705;41.410;2.160;2022-10-31T04:22:35;23.60;;;12.73;;
5363;SDS011;2705;41.410;2.160;2022-10-31T04:25:05;23.90;;;12.23;;
5363;SDS011;2705;41.410;2.160;2022-10-31T04:27:36;25.27;;;12.97;;
5363;SDS011;2705;41.410;2.160;2022-10-31T04:30:07;28.40;;;11.20;;
5363;SDS011;2705;41.410;2.160;2022-10-31T04:32:39;22.70;;;11.10;;
5363;SDS011;2705;41.410;2.160;2022-10-31T04:35:10;26.40;;;10.80;;
5363;SDS011;2705;41.410;2.160;2022-10-31T04:37:39;27.40;;;12.10;;
5363;SDS011;2705;41.410;2.160;2022-10-31T04:40:09;27.67;;;12.10;;
5363;SDS011;2705;41.410;2.160;2022-10-31T04:42:41;39.97;;;12.50;;
5363;SDS011;2705;41.410;2.160;2022-10-31T04:45:11;21.07;;;11.60;;
5363;SDS011;2705;41.410;2.160;2022-10-31T04:47:47;21.57;;;11.33;;
5363;SDS011;2705;41.410;2.160;2022-10-31T04:50:17;26.53;;;12.10;;
5363;SDS011;2705;41.410;2.160;2022-10-31T04:52:47;26.83;;;11.97;;
5363;SDS011;2705;41.410;2.160;2022-10-31T04:55:20;31.10;;;11.00;;
5363;SDS011;2705;41.410;2.160;2022-10-31T04:58:28;26.93;;;11.60;;
5363;SDS011;2705;41.410;2.160;2022-10-31T05:00:57;24.53;;;10.93;;
5363;SDS011;2705;41.410;2.160;2022-10-31T05:03:26;37.10;;;11.13;;
5363;SDS011;2705;41.410;2.160;2022-10-31T05:05:57;18.63;;;11.10;;
5363;SDS011;2705;41.410;2.160;2022-10-31T05:08:27;26.60;;;10.63;;
5363;SDS011;2705;41.410;2.160;2022-10-31T05:10:59;19.90;;;10.90;;
5363;SDS011;2705;41.410;2.160;2022-10-31T05:13:31;22.47;;;10.07;;
5363;SDS011;2705;41.410;2.160;2022-10-31T05:16:12;22.87;;;9.67;;
5363;SDS011;2705;41.410;2.160;2022-10-31T05:18:41;25.83;;;8.90;;
5363;SDS011;2705;41.410;2.160;2022-10-31T05:21:12;22.40;;;10.67;;
5363;SDS011;2705;41.410;2.160;2022-10-31T05:23:49;28.33;;;10.13;;
5363;SDS011;2705;41.410;2.160;2022-10-31T05:26:21;23.27;;;10.10;;
5363;SDS011;2705;41.410;2.160;2022-10-31T05:28:52;20.97;;;9.57;;
5363;SDS011;2705;41.410;2.160;2022-10-31T05:31:22;31.03;;;9.60;;
5363;SDS011;2705;41.410;2.160;2022-10-31T05:33:53;19.63;;;8.83;;
5363;SDS011;2705;41.410;2.160;2022-10-31T05:36:42;21.70;;;8.60;;
5363;SDS011;2705;41.410;2.160;2022-10-31T05:39:14;30.03;;;10.57;;
5363;SDS011;2705;41.410;2.160;2022-10-31T05:41:47;20.40;;;9.47;;
5363;SDS011;2705;41.410;2.160;2022-10-31T05:44:25;31.17;;;9.80;;
5363;SDS011;2705;41.410;2.160;2022-10-31T05:47:13;18.10;;;9.53;;
5363;SDS011;2705;41.410;2.160;2022-10-31T05:49:54;24.43;;;8.93;;
5363;SDS011;2705;41.410;2.160;2022-10-31T05:53:04;23.67;;;9.50;;
5363;SDS011;2705;41.410;2.160;2022-10-31T05:55:36;19.67;;;9.30;;
5363;SDS011;2705;41.410;2.160;2022-10-31T05:58:12;14.83;;;9.37;;
5363;SDS011;2705;41.410;2.160;2022-10-31T06:00:49;31.37;;;9.13;;
5363;SDS011;2705;41.410;2.160;2022-10-31T06:03:19;22.13;;;9.70;;
5363;SDS011;2705;41.410;2.160;2022-10-31T06:05:59;34.70;;;10.10;;
5363;SDS011;2705;41.410;2.160;2022-10-31T06:08:35;20.10;;;9.70;;
5363;SDS011;2705;41.410;2.160;2022-10-31T06:11:09;24.80;;;9.87;;
5363;SDS011;2705;41.410;2.160;2022-10-31T06:13:57;22.60;;;10.27;;
5363;SDS011;2705;41.410;2.160;2022-10-31T06:16:55;29.33;;;10.37;;
5363;SDS011;2705;41.410;2.160;2022-10-31T06:19:51;30.17;;;10.27;;
5363;SDS011;2705;41.410;2.160;2022-10-31T06:22:23;20.93;;;11.33;;
5363;SDS011;2705;41.410;2.160;2022-10-31T06:24:55;21.90;;;10.40;;
5363;SDS011;2705;41.410;2.160;2022-10-31T06:27:31;27.20;;;10.80;;
5363;SDS011;2705;41.410;2.160;2022-10-31T06:30:07;29.57;;;10.13;;
5363;SDS011;2705;41.410;2.160;2022-10-31T06:32:37;20.30;;;10.70;;
5363;SDS011;2705;41.410;2.160;2022-10-31T06:35:08;21.27;;;10.40;;
5363;SDS011;2705;41.410;2.160;2022-10-31T06:37:39;25.40;;;11.57;;
5363;SDS011;2705;41.410;2.160;2022-10-31T06:40:37;29.83;;;11.03;;
5363;SDS011;2705;41.410;2.160;2022-10-31T06:43:26;27.17;;;11.93;;
5363;SDS011;2705;41.410;2.160;2022-10-31T06:46:13;18.57;;;10.07;;
5363;SDS011;2705;41.410;2.160;2022-10-31T06:48:57;27.30;;;10.33;;
5363;SDS011;2705;41.410;2.160;2022-10-31T06:51:53;17.50;;;9.73;;
5363;SDS011;2705;41.410;2.160;2022-10-31T06:54:22;22.93;;;10.03;;
5363;SDS011;2705;41.410;2.160;2022-10-31T06:56:53;20.50;;;9.90;;
5363;SDS011;2705;41.410;2.160;2022-10-31T06:59:22;26.23;;;10.77;;
5363;SDS011;2705;41.410;2.160;2022-10-31T07:02:21;26.40;;;10.13;;
5363;SDS011;2705;41.410;2.160;2022-10-31T07:04:51;23.13;;;10.87;;
5363;SDS011;2705;41.410;2.160;2022-10-31T07:07:21;32.00;;;9.83;;
5363;SDS011;2705;41.410;2.160;2022-10-31T07:09:51;24.53;;;9.37;;
5363;SDS011;2705;41.410;2.160;2022-10-31T07:12:36;24.33;;;9.73;;
5363;SDS011;2705;41.410;2.160;2022-10-31T07:15:06;18.67;;;8.90;;
5363;SDS011;2705;41.410;2.160;2022-10-31T07:17:36;26.80;;;10.27;;
5363;SDS011;2705;41.410;2.160;2022-10-31T07:20:07;28.17;;;10.37;;
5363;SDS011;2705;41.410;2.160;2022-10-31T07:22:37;25.80;;;9.00;;
5363;SDS011;2705;41.410;2.160;2022-10-31T07:25:08;18.83;;;9.80;;
5363;SDS011;2705;41.410;2.160;2022-10-31T07:27:57;19.50;;;10.03;;
5363;SDS011;2705;41.410;2.160;2022-10-31T07:30:27;22.23;;;9.87;;
5363;SDS011;2705;41.410;2.160;2022-10-31T07:32:56;34.23;;;11.40;;
5363;SDS011;2705;41.410;2.160;2022-10-31T07:35:46;19.83;;;10.00;;
5363;SDS011;2705;41.410;2.160;2022-10-31T07:38:20;22.23;;;11.67;;
5363;SDS011;2705;41.410;2.160;2022-10-31T07:40:49;27.33;;;11.40;;
5363;SDS011;2705;41.410;2.160;2022-10-31T07:43:21;26.33;;;9.50;;
5363;SDS011;2705;41.410;2.160;2022-10-31T07:46:10;22.17;;;10.10;;
5363;SDS011;2705;41.410;2.160;2022-10-31T07:48:58;19.10;;;10.77;;
5363;SDS011;2705;41.410;2.160;2022-10-31T07:51:46;26.90;;;10.00;;
5363;SDS011;2705;41.410;2.160;2022-10-31T07:54:24;23.23;;;9.80;;
5363;SDS011;2705;41.410;2.160;2022-10-31T07:56:54;17.97;;;9.73;;
5363;SDS011;2705;41.410;2.160;2022-10-31T07:59:24;30.50;;;11.43;;
5363;SDS011;2705;41.410;2.160;2022-10-31T08:01:54;19.30;;;9.97;;
5363;SDS011;2705;41.410;2.160;2022-10-31T08:04:29;19.43;;;9.63;;
5363;SDS011;2705;41.410;2.160;2022-10-31T08:07:17;19.53;;;10.00;;
5363;SDS011;2705;41.410;2.160;2022-10-31T08:09:54;33.03;;;13.60;;
5363;SDS011;2705;41.410;2.160;2022-10-31T08:12:27;27.73;;;11.23;;
5363;SDS011;2705;41.410;2.160;2022-10-31T08:14:58;24.83;;;11.80;;
5363;SDS011;2705;41.410;2.160;2022-10-31T08:17:29;24.37;;;10.10;;
5363;SDS011;2705;41.410;2.160;2022-10-31T08:19:59;30.70;;;11.93;;
5363;SDS011;2705;41.410;2.160;2022-10-31T08:22:33;17.43;;;9.97;;
5363;SDS011;2705;41.410;2.160;2022-10-31T08:25:09;29.00;;;13.00;;
5363;SDS011;2705;41.410;2.160;2022-10-31T08:27:39;20.10;;;9.37;;
5363;SDS011;2705;41.410;2.160;2022-10-31T08:30:17;30.07;;;11.20;;
5363;SDS011;2705;41.410;2.160;2022-10-31T08:33:08;26.23;;;10.73;;
5363;SDS011;2705;41.410;2.160;2022-10-31T08:36:17;23.63;;;10.00;;
5363;SDS011;2705;41.410;2.160;2022-10-31T08:39:06;23.00;;;8.37;;
5363;SDS011;2705;41.410;2.160;2022-10-31T08:41:36;19.70;;;8.10;;
5363;SDS011;2705;41.410;2.160;2022-10-31T08:44:09;28.50;;;9.20;;
5363;SDS011;2705;41.410;2.160;2022-10-31T08:46:40;17.93;;;9.97;;
5363;SDS011;2705;41.410;2.160;2022-10-31T08:49:10;19.57;;;8.70;;
5363;SDS011;2705;41.410;2.160;2022-10-31T08:51:41;25.10;;;9.17;;
5363;SDS011;2705;41.410;2.160;2022-10-31T08:54:11;21.87;;;8.93;;
5363;SDS011;2705;41.410;2.160;2022-10-31T08:56:55;26.27;;;9.17;;
5363;SDS011;2705;41.410;2.160;2022-10-31T08:59:44;21.83;;;8.17;;
5363;SDS011;2705;41.410;2.160;2022-10-31T09:02:25;20.20;;;9.40;;
5363;SDS011;2705;41.410;2.160;2022-10-31T09:04:58;24.80;;;9.20;;
5363;SDS011;2705;41.410;2.160;2022-10-31T09:07:28;30.53;;;9.10;;
5363;SDS011;2705;41.410;2.160;2022-10-31T09:09:58;18.63;;;9.23;;
5363;SDS011;2705;41.410;2.160;2022-10-31T09:12:31;19.40;;;7.87;;
5363;SDS011;2705;41.410;2.160;2022-10-31T09:15:41;23.37;;;8.50;;
5363;SDS011;2705;41.410;2.160;2022-10-31T09:18:21;18.70;;;8.77;;
5363;SDS011;2705;41.410;2.160;2022-10-31T09:20:57;23.50;;;8.97;;
5363;SDS011;2705;41.410;2.160;2022-10-31T09:23:29;22.17;;;8.87;;
5363;SDS011;2705;41.410;2.160;2022-10-31T09:26:00;25.53;;;13.03;;
5363;SDS011;2705;41.410;2.160;2022-10-31T09:28:30;19.90;;;10.10;;
5363;SDS011;2705;41.410;2.160;2022-10-31T09:31:05;18.97;;;10.50;;
5363;SDS011;2705;41.410;2.160;2022-10-31T09:33:48;32.67;;;15.47;;
5363;SDS011;2705;41.410;2.160;2022-10-31T09:36:36;21.53;;;10.17;;
5363;SDS011;2705;41.410;2.160;2022-10-31T09:39:08;26.10;;;10.00;;
5363;SDS011;2705;41.410;2.160;2022-10-31T09:41:49;18.00;;;8.30;;
5363;SDS011;2705;41.410;2.160;2022-10-31T09:44:27;20.43;;;8.50;;
5363;SDS011;2705;41.410;2.160;2022-10-31T09:47:00;52.70;;;9.17;;
5363;SDS011;2705;41.410;2.160;2022-10-31T09:49:36;29.33;;;10.83;;
5363;SDS011;2705;41.410;2.160;2022-10-31T09:52:10;26.00;;;9.17;;
5363;SDS011;2705;41.410;2.160;2022-10-31T09:54:41;25.97;;;10.20;;
5363;SDS011;2705;41.410;2.160;2022-10-31T09:57:12;27.33;;;8.90;;
5363;SDS011;2705;41.410;2.160;2022-10-31T09:59:45;23.40;;;9.83;;
5363;SDS011;2705;41.410;2.160;2022-10-31T10:02:19;19.97;;;7.57;;
5363;SDS011;2705;41.410;2.160;2022-10-31T10:04:54;29.53;;;10.43;;
5363;SDS011;2705;41.410;2.160;2022-10-31T10:07:30;25.17;;;8.40;;
5363;SDS011;2705;41.410;2.160;2022-10-31T10:10:22;29.07;;;9.83;;
5363;SDS011;2705;41.410;2.160;2022-10-31T10:13:20;25.67;;;8.17;;
5363;SDS011;2705;41.410;2.160;2022-10-31T10:15:55;38.80;;;9.27;;
5363;SDS011;2705;41.410;2.160;2022-10-31T10:18:30;35.63;;;10.07;;
5363;SDS011;2705;41.410;2.160;2022-10-31T10:21:03;33.57;;;9.80;;
5363;SDS011;2705;41.410;2.160;2022-10-31T10:23:39;24.13;;;9.00;;
5363;SDS011;2705;41.410;2.160;2022-10-31T10:26:14;24.20;;;8.80;;
5363;SDS011;2705;41.410;2.160;2022-10-31T10:28:45;29.83;;;9.47;;
5363;SDS011;2705;41.410;2.160;2022-10-31T10:31:16;21.03;;;7.80;;
5363;SDS011;2705;41.410;2.160;2022-10-31T10:33:54;24.03;;;9.13;;
5363;SDS011;2705;41.410;2.160;2022-10-31T10:36:27;21.40;;;8.10;;
5363;SDS011;2705;41.410;2.160;2022-10-31T10:38:59;13.83;;;7.03;;
5363;SDS011;2705;41.410;2.160;2022-10-31T10:41:30;22.47;;;8.10;;
5363;SDS011;2705;41.410;2.160;2022-10-31T10:44:00;35.63;;;9.57;;
5363;SDS011;2705;41.410;2.160;2022-10-31T10:46:32;14.87;;;7.80;;
5363;SDS011;2705;41.410;2.160;2022-10-31T10:49:22;21.70;;;7.80;;
5363;SDS011;2705;41.410;2.160;2022-10-31T10:51:57;19.80;;;7.93;;
5363;SDS011;2705;41.410;2.160;2022-10-31T10:54:52;20.17;;;7.87;;
5363;SDS011;2705;41.410;2.160;2022-10-31T10:57:29;22.63;;;7.90;;
5363;SDS011;2705;41.410;2.160;2022-10-31T11:00:00;19.07;;;7.53;;
5363;SDS011;2705;41.410;2.160;2022-10-31T11:02:31;16.20;;;7.80;;
5363;SDS011;2705;41.410;2.160;2022-10-31T11:05:00;25.73;;;8.20;;
5363;SDS011;2705;41.410;2.160;2022-10-31T11:07:38;18.43;;;7.80;;
5363;SDS011;2705;41.410;2.160;2022-10-31T11:10:11;24.67;;;8.87;;
5363;SDS011;2705;41.410;2.160;2022-10-31T11:12:42;25.23;;;9.00;;
5363;SDS011;2705;41.410;2.160;2022-10-31T11:15:19;28.87;;;9.47;;
5363;SDS011;2705;41.410;2.160;2022-10-31T11:17:49;18.20;;;7.40;;
5363;SDS011;2705;41.410;2.160;2022-10-31T11:20:26;20.53;;;7.00;;
5363;SDS011;2705;41.410;2.160;2022-10-31T11:23:04;19.77;;;7.10;;
5363;SDS011;2705;41.410;2.160;2022-10-31T11:25:34;24.43;;;9.47;;
5363;SDS011;2705;41.410;2.160;2022-10-31T11:28:03;22.40;;;8.77;;
5363;SDS011;2705;41.410;2.160;2022-10-31T11:30:35;25.53;;;13.20;;
5363;SDS011;2705;41.410;2.160;2022-10-31T11:33:05;19.77;;;9.23;;
5363;SDS011;2705;41.410;2.160;2022-10-31T11:35:34;26.87;;;8.90;;
5363;SDS011;2705;41.410;2.160;2022-10-31T11:38:13;16.40;;;8.20;;
5363;SDS011;2705;41.410;2.160;2022-10-31T11:40:54;22.37;;;8.70;;
5363;SDS011;2705;41.410;2.160;2022-10-31T11:43:24;32.27;;;11.80;;
5363;SDS011;2705;41.410;2.160;2022-10-31T11:45:54;22.30;;;10.53;;
5363;SDS011;2705;41.410;2.160;2022-10-31T11:48:23;18.60;;;10.03;;
5363;SDS011;2705;41.410;2.160;2022-10-31T11:50:54;34.03;;;11.63;;
5363;SDS011;2705;41.410;2.160;2022-10-31T11:53:26;32.03;;;10.30;;
5363;SDS011;2705;41.410;2.160;2022-10-31T11:56:00;36.00;;;10.80;;
5363;SDS011;2705;41.410;2.160;2022-10-31T11:58:30;24.23;;;9.60;;
5363;SDS011;2705;41.410;2.160;2022-10-31T12:00:59;31.37;;;10.23;;
5363;SDS011;2705;41.410;2.160;2022-10-31T12:06:16;39.30;;;12.93;;
5363;SDS011;2705;41.410;2.160;2022-10-31T12:08:48;20.50;;;11.00;;
5363;SDS011;2705;41.410;2.160;2022-10-31T12:11:25;39.17;;;12.60;;
5363;SDS011;2705;41.410;2.160;2022-10-31T12:13:59;21.30;;;11.23;;
5363;SDS011;2705;41.410;2.160;2022-10-31T12:16:34;35.57;;;11.10;;
5363;SDS011;2705;41.410;2.160;2022-10-31T12:19:06;33.40;;;11.47;;
5363;SDS011;2705;41.410;2.160;2022-10-31T12:21:47;27.57;;;11.80;;
5363;SDS011;2705;41.410;2.160;2022-10-31T12:24:26;29.53;;;10.70;;
5363;SDS011;2705;41.410;2.160;2022-10-31T12:27:03;26.23;;;10.27;;
5363;SDS011;2705;41.410;2.160;2022-10-31T12:29:44;27.20;;;9.90;;
5363;SDS011;2705;41.410;2.160;2022-10-31T12:32:21;33.60;;;9.83;;
5363;SDS011;2705;41.410;2.160;2022-10-31T12:34:59;40.50;;;11.10;;
5363;SDS011;2705;41.410;2.160;2022-10-31T12:37:35;24.77;;;10.00;;
5363;SDS011;2705;41.410;2.160;2022-10-31T12:40:19;29.50;;;10.53;;
5363;SDS011;2705;41.410;2.160;2022-10-31T12:42:55;31.23;;;13.20;;
5363;SDS011;2705;41.410;2.160;2022-10-31T12:45:31;31.17;;;10.73;;
5363;SDS011;2705;41.410;2.160;2022-10-31T12:48:10;31.37;;;9.10;;
5363;SDS011;2705;41.410;2.160;2022-10-31T12:50:47;22.17;;;8.07;;
5363;SDS011;2705;41.410;2.160;2022-10-31T12:53:24;26.57;;;8.37;;
5363;SDS011;2705;41.410;2.160;2022-10-31T12:55:59;30.50;;;9.60;;
5363;SDS011;2705;41.410;2.160;2022-10-31T12:58:30;26.20;;;8.50;;
5363;SDS011;2705;41.410;2.160;2022-10-31T13:01:03;26.00;;;8.03;;
5363;SDS011;2705;41.410;2.160;2022-10-31T13:03:38;30.87;;;8.70;;
5363;SDS011;2705;41.410;2.160;2022-10-31T13:06:09;18.47;;;8.43;;
5363;SDS011;2705;41.410;2.160;2022-10-31T13:08:42;18.47;;;7.57;;
5363;SDS011;2705;41.410;2.160;2022-10-31T13:11:15;24.83;;;8.60;;
5363;SDS011;2705;41.410;2.160;2022-10-31T13:13:47;26.83;;;9.20;;
5363;SDS011;2705;41.410;2.160;2022-10-31T13:16:19;24.00;;;8.07;;
5363;SDS011;2705;41.410;2.160;2022-10-31T13:18:54;27.63;;;9.07;;
5363;SDS011;2705;41.410;2.160;2022-10-31T13:21:26;19.80;;;9.00;;
5363;SDS011;2705;41.410;2.160;2022-10-31T13:23:56;13.73;;;6.90;;
5363;SDS011;2705;41.410;2.160;2022-10-31T13:26:33;18.77;;;9.07;;
5363;SDS011;2705;41.410;2.160;2022-10-31T13:29:05;24.10;;;9.27;;
5363;SDS011;2705;41.410;2.160;2022-10-31T13:31:39;19.30;;;8.67;;
5363;SDS011;2705;41.410;2.160;2022-10-31T13:34:10;27.93;;;8.90;;
5363;SDS011;2705;41.410;2.160;2022-10-31T13:36:47;23.80;;;9.40;;
5363;SDS011;2705;41.410;2.160;2022-10-31T13:39:21;26.43;;;10.43;;
5363;SDS011;2705;41.410;2.160;2022-10-31T13:41:54;33.73;;;10.37;;
5363;SDS011;2705;41.410;2.160;2022-10-31T13:44:27;24.10;;;10.43;;
5363;SDS011;2705;41.410;2.160;2022-10-31T13:47:04;20.83;;;9.83;;
5363;SDS011;2705;41.410;2.160;2022-10-31T13:49:49;24.37;;;10.13;;
5363;SDS011;2705;41.410;2.160;2022-10-31T13:52:22;56.27;;;10.27;;
5363;SDS011;2705;41.410;2.160;2022-10-31T13:54:53;30.87;;;9.83;;
5363;SDS011;2705;41.410;2.160;2022-10-31T13:57:29;32.93;;;9.73;;
5363;SDS011;2705;41.410;2.160;2022-10-31T14:00:02;24.63;;;9.10;;
5363;SDS011;2705;41.410;2.160;2022-10-31T14:02:43;24.97;;;9.93;;
5363;SDS011;2705;41.410;2.160;2022-10-31T14:05:18;21.63;;;9.07;;
5363;SDS011;2705;41.410;2.160;2022-10-31T14:07:51;27.33;;;9.63;;
5363;SDS011;2705;41.410;2.160;2022-10-31T14:10:21;28.13;;;8.63;;
5363;SDS011;2705;41.410;2.160;2022-10-31T14:12:53;27.30;;;9.07;;
5363;SDS011;2705;41.410;2.160;2022-10-31T14:15:23;36.70;;;11.37;;
5363;SDS011;2705;41.410;2.160;2022-10-31T14:17:54;27.20;;;9.97;;
5363;SDS011;2705;41.410;2.160;2022-10-31T14:20:36;20.57;;;10.10;;
5363;SDS011;2705;41.410;2.160;2022-10-31T14:23:13;25.20;;;11.50;;
5363;SDS011;2705;41.410;2.160;2022-10-31T14:26:07;27.03;;;11.10;;
5363;SDS011;2705;41.410;2.160;2022-10-31T14:28:46;31.40;;;10.93;;
5363;SDS011;2705;41.410;2.160;2022-10-31T14:31:32;25.87;;;11.00;;
5363;SDS011;2705;41.410;2.160;2022-10-31T14:34:17;34.07;;;10.60;;
5363;SDS011;2705;41.410;2.160;2022-10-31T14:36:51;29.90;;;10.40;;
5363;SDS011;2705;41.410;2.160;2022-10-31T14:39:25;24.13;;;9.87;;
5363;SDS011;2705;41.410;2.160;2022-10-31T14:41:59;24.83;;;10.80;;
5363;SDS011;2705;41.410;2.160;2022-10-31T14:44:45;24.43;;;11.20;;
5363;SDS011;2705;41.410;2.160;2022-10-31T14:47:21;28.07;;;11.10;;
5363;SDS011;2705;41.410;2.160;2022-10-31T14:52:37;33.90;;;13.43;;
5363;SDS011;2705;41.410;2.160;2022-10-31T14:55:07;21.90;;;10.23;;
5363;SDS011;2705;41.410;2.160;2022-10-31T14:57:43;20.60;;;10.60;;
5363;SDS011;2705;41.410;2.160;2022-10-31T15:00:17;21.97;;;10.00;;
5363;SDS011;2705;41.410;2.160;2022-10-31T15:02:49;31.77;;;10.27;;
5363;SDS011;2705;41.410;2.160;2022-10-31T15:05:19;25.37;;;10.40;;
5363;SDS011;2705;41.410;2.160;2022-10-31T15:07:49;34.30;;;11.90;;
5363;SDS011;2705;41.410;2.160;2022-10-31T15:10:20;22.67;;;10.60;;
5363;SDS011;2705;41.410;2.160;2022-10-31T15:12:49;26.73;;;10.90;;
5363;SDS011;2705;41.410;2.160;2022-10-31T15:15:20;29.40;;;11.90;;
5363;SDS011;2705;41.410;2.160;2022-10-31T15:17:51;25.13;;;12.00;;
5363;SDS011;2705;41.410;2.160;2022-10-31T15:20:22;38.73;;;12.70;;
5363;SDS011;2705;41.410;2.160;2022-10-31T15:22:51;27.20;;;12.80;;
5363;SDS011;2705;41.410;2.160;2022-10-31T15:25:24;21.87;;;11.40;;
5363;SDS011;2705;41.410;2.160;2022-10-31T15:27:54;31.20;;;11.07;;
5363;SDS011;2705;41.410;2.160;2022-10-31T15:30:25;28.20;;;11.23;;
5363;SDS011;2705;41.410;2.160;2022-10-31T15:32:55;29.93;;;12.20;;
5363;SDS011;2705;41.410;2.160;2022-10-31T15:35:25;26.27;;;11.60;;
5363;SDS011;2705;41.410;2.160;2022-10-31T15:37:55;33.30;;;13.80;;
5363;SDS011;2705;41.410;2.160;2022-10-31T15:40:26;30.03;;;13.63;;
5363;SDS011;2705;41.410;2.160;2022-10-31T15:42:56;34.83;;;14.13;;
5363;SDS011;2705;41.410;2.160;2022-10-31T15:45:28;29.80;;;13.10;;